Northampton, New York
Current Conditions -  °F | °C
As of 12:39 AM on Wednesday 22 Oct 2014 (Local Time) from KFOK Reporting Station
Broken Clouds Broken Clouds  
Wind Chill: 60°   Ceiling: 1400
Heat Index: 60°   Visibility: 10mi
Dew Point: 57°   Wind: 12mph
Humidity: 90%   Direction: 40°NE
Pressure: 29.91"   Gusts: 20mph
Location:  40.953°N, 72.642°W
Report Text: KFOK 220439Z 04010G17KT 10SM SCT006 BKN014 16/14 A2991 RMK AO2 T01560139
Loading
Personal Weather Stations






























Interactive Weather Map
Tropical Storm Tracking
New forecast layout! Learn more

10-Day Weather Forecast

Advertisements
Track Severe Weather on mobile